sensor_id;sensor_type;location;lat;lon;timestamp;pressure;altitude;pressure_sealevel;temperature;humidity
63739;BME280;68816;45.558;10.070;2023-04-22T00:01:50;99846.09;;;13.23;67.98
63739;BME280;68816;45.558;10.070;2023-04-22T00:04:16;99831.38;;;13.22;68.02
63739;BME280;68816;45.558;10.070;2023-04-22T00:06:42;99826.88;;;13.16;67.28
63739;BME280;68816;45.558;10.070;2023-04-22T00:09:07;99826.16;;;13.26;67.28
63739;BME280;68816;45.558;10.070;2023-04-22T00:11:33;99822.53;;;13.25;66.88
63739;BME280;68816;45.558;10.070;2023-04-22T00:13:58;99823.69;;;13.29;67.52
63739;BME280;68816;45.558;10.070;2023-04-22T00:16:23;99824.91;;;13.38;66.75
63739;BME280;68816;45.558;10.070;2023-04-22T00:18:50;99815.63;;;13.28;67.47
63739;BME280;68816;45.558;10.070;2023-04-22T00:21:15;99822.09;;;13.33;66.86
63739;BME280;68816;45.558;10.070;2023-04-22T00:23:41;99813.13;;;13.26;66.77
63739;BME280;68816;45.558;10.070;2023-04-22T00:26:10;99820.91;;;13.29;66.41
63739;BME280;68816;45.558;10.070;2023-04-22T00:28:36;99799.63;;;13.13;66.48
63739;BME280;68816;45.558;10.070;2023-04-22T00:31:01;99813.66;;;13.28;66.44
63739;BME280;68816;45.558;10.070;2023-04-22T00:33:29;99823.25;;;13.15;67.42
63739;BME280;68816;45.558;10.070;2023-04-22T00:35:55;99820.25;;;13.22;66.91
63739;BME280;68816;45.558;10.070;2023-04-22T00:38:20;99822.59;;;13.30;66.75
63739;BME280;68816;45.558;10.070;2023-04-22T00:40:46;99813.66;;;13.28;66.14
63739;BME280;68816;45.558;10.070;2023-04-22T00:43:12;99820.72;;;13.36;66.91
63739;BME280;68816;45.558;10.070;2023-04-22T00:45:38;99813.22;;;13.36;66.33
63739;BME280;68816;45.558;10.070;2023-04-22T00:48:04;99827.34;;;13.35;66.25
63739;BME280;68816;45.558;10.070;2023-04-22T00:50:30;99819.50;;;13.27;66.81
63739;BME280;68816;45.558;10.070;2023-04-22T00:52:55;99812.63;;;13.34;65.77
63739;BME280;68816;45.558;10.070;2023-04-22T00:55:21;99821.56;;;13.36;65.94
63739;BME280;68816;45.558;10.070;2023-04-22T00:57:48;99815.41;;;13.34;65.53
63739;BME280;68816;45.558;10.070;2023-04-22T01:00:15;99801.31;;;13.14;66.63
63739;BME280;68816;45.558;10.070;2023-04-22T01:02:41;99821.50;;;13.31;65.66
63739;BME280;68816;45.558;10.070;2023-04-22T01:05:07;99819.75;;;13.25;66.24
63739;BME280;68816;45.558;10.070;2023-04-22T01:07:35;99820.41;;;13.32;65.66
63739;BME280;68816;45.558;10.070;2023-04-22T01:10:03;99816.72;;;13.27;65.94
63739;BME280;68816;45.558;10.070;2023-04-22T01:12:28;99817.22;;;13.24;66.46
63739;BME280;68816;45.558;10.070;2023-04-22T01:14:54;99811.47;;;13.30;64.92
63739;BME280;68816;45.558;10.070;2023-04-22T01:17:20;99815.34;;;13.29;65.80
63739;BME280;68816;45.558;10.070;2023-04-22T01:19:47;99814.50;;;13.29;65.26
63739;BME280;68816;45.558;10.070;2023-04-22T01:22:13;99817.56;;;13.27;65.10
63739;BME280;68816;45.558;10.070;2023-04-22T01:24:39;99814.00;;;13.32;65.58
63739;BME280;68816;45.558;10.070;2023-04-22T01:27:05;99806.31;;;13.17;65.45
63739;BME280;68816;45.558;10.070;2023-04-22T01:29:30;99820.00;;;13.24;65.90
63739;BME280;68816;45.558;10.070;2023-04-22T01:31:56;99813.06;;;13.21;65.60
63739;BME280;68816;45.558;10.070;2023-04-22T01:34:22;99814.16;;;13.20;66.01
63739;BME280;68816;45.558;10.070;2023-04-22T01:36:49;99803.88;;;13.21;64.99
63739;BME280;68816;45.558;10.070;2023-04-22T01:39:14;99807.56;;;13.26;64.58
63739;BME280;68816;45.558;10.070;2023-04-22T01:41:40;99810.38;;;13.31;64.40
63739;BME280;68816;45.558;10.070;2023-04-22T01:44:05;99811.53;;;13.35;63.77
63739;BME280;68816;45.558;10.070;2023-04-22T01:46:32;99807.66;;;13.36;63.83
63739;BME280;68816;45.558;10.070;2023-04-22T01:48:57;99811.66;;;13.45;63.80
63739;BME280;68816;45.558;10.070;2023-04-22T01:51:23;99805.28;;;13.45;64.15
63739;BME280;68816;45.558;10.070;2023-04-22T01:53:49;99792.63;;;13.32;64.32
63739;BME280;68816;45.558;10.070;2023-04-22T01:56:15;99804.94;;;13.41;65.02
63739;BME280;68816;45.558;10.070;2023-04-22T01:58:41;99810.38;;;13.31;64.05
63739;BME280;68816;45.558;10.070;2023-04-22T02:01:11;99809.53;;;13.31;64.70
63739;BME280;68816;45.558;10.070;2023-04-22T02:03:37;99813.53;;;13.40;63.83
63739;BME280;68816;45.558;10.070;2023-04-22T02:06:03;99816.06;;;13.41;65.22
63739;BME280;68816;45.558;10.070;2023-04-22T02:08:29;99795.41;;;13.32;64.73
63739;BME280;68816;45.558;10.070;2023-04-22T02:10:54;99802.66;;;13.33;64.77
63739;BME280;68816;45.558;10.070;2023-04-22T02:13:20;99800.97;;;13.32;65.32
63739;BME280;68816;45.558;10.070;2023-04-22T02:15:45;99810.56;;;13.46;65.17
63739;BME280;68816;45.558;10.070;2023-04-22T02:18:11;99807.88;;;13.30;66.43
63739;BME280;68816;45.558;10.070;2023-04-22T02:20:37;99818.31;;;13.23;66.31
63739;BME280;68816;45.558;10.070;2023-04-22T02:23:03;99816.38;;;13.23;66.80
63739;BME280;68816;45.558;10.070;2023-04-22T02:25:29;99824.59;;;13.13;66.54
63739;BME280;68816;45.558;10.070;2023-04-22T02:27:56;99821.31;;;13.16;67.13
63739;BME280;68816;45.558;10.070;2023-04-22T02:30:21;99819.22;;;13.28;66.49
63739;BME280;68816;45.558;10.070;2023-04-22T02:32:47;99816.44;;;13.28;67.95
63739;BME280;68816;45.558;10.070;2023-04-22T02:35:14;99816.97;;;13.25;68.44
63739;BME280;68816;45.558;10.070;2023-04-22T02:37:39;99814.66;;;13.17;68.69
63739;BME280;68816;45.558;10.070;2023-04-22T02:40:05;99814.72;;;13.22;69.13
63739;BME280;68816;45.558;10.070;2023-04-22T02:42:32;99815.03;;;13.26;67.82
63739;BME280;68816;45.558;10.070;2023-04-22T02:44:57;99815.34;;;13.07;68.85
63739;BME280;68816;45.558;10.070;2023-04-22T02:47:23;99820.41;;;12.94;69.04
63739;BME280;68816;45.558;10.070;2023-04-22T02:49:48;99824.94;;;13.00;69.28
63739;BME280;68816;45.558;10.070;2023-04-22T02:52:14;99820.56;;;13.04;69.66
63739;BME280;68816;45.558;10.070;2023-04-22T02:54:40;99820.34;;;13.10;68.67
63739;BME280;68816;45.558;10.070;2023-04-22T02:57:05;99823.97;;;13.11;68.69
63739;BME280;68816;45.558;10.070;2023-04-22T02:59:31;99818.91;;;13.03;70.27
63739;BME280;68816;45.558;10.070;2023-04-22T03:01:56;99823.72;;;12.91;70.40
63739;BME280;68816;45.558;10.070;2023-04-22T03:04:22;99815.41;;;12.91;70.20
63739;BME280;68816;45.558;10.070;2023-04-22T03:06:49;99820.94;;;12.91;70.68
63739;BME280;68816;45.558;10.070;2023-04-22T03:09:15;99828.75;;;12.94;70.02
63739;BME280;68816;45.558;10.070;2023-04-22T03:11:41;99836.44;;;12.87;70.27
63739;BME280;68816;45.558;10.070;2023-04-22T03:14:06;99829.38;;;12.79;70.36
63739;BME280;68816;45.558;10.070;2023-04-22T03:16:32;99828.25;;;12.58;71.27
63739;BME280;68816;45.558;10.070;2023-04-22T03:18:58;99823.03;;;12.62;70.58
63739;BME280;68816;45.558;10.070;2023-04-22T03:21:23;99817.31;;;12.68;70.01
63739;BME280;68816;45.558;10.070;2023-04-22T03:23:48;99825.84;;;12.84;70.37
63739;BME280;68816;45.558;10.070;2023-04-22T03:26:14;99827.22;;;12.64;71.39
63739;BME280;68816;45.558;10.070;2023-04-22T03:28:40;99826.72;;;12.67;71.35
63739;BME280;68816;45.558;10.070;2023-04-22T03:31:05;99835.72;;;12.74;70.15
63739;BME280;68816;45.558;10.070;2023-04-22T03:33:30;99818.34;;;12.62;71.68
63739;BME280;68816;45.558;10.070;2023-04-22T03:35:56;99820.03;;;12.63;70.63
63739;BME280;68816;45.558;10.070;2023-04-22T03:38:21;99828.97;;;12.70;70.92
63739;BME280;68816;45.558;10.070;2023-04-22T03:40:47;99808.00;;;12.58;70.99
63739;BME280;68816;45.558;10.070;2023-04-22T03:43:12;99826.91;;;12.61;70.82
63739;BME280;68816;45.558;10.070;2023-04-22T03:45:38;99823.22;;;12.55;70.78
63739;BME280;68816;45.558;10.070;2023-04-22T03:48:03;99823.53;;;12.59;71.59
63739;BME280;68816;45.558;10.070;2023-04-22T03:50:31;99818.81;;;12.59;71.21
63739;BME280;68816;45.558;10.070;2023-04-22T03:52:56;99822.53;;;12.48;72.17
63739;BME280;68816;45.558;10.070;2023-04-22T03:55:21;99817.00;;;12.48;71.73
63739;BME280;68816;45.558;10.070;2023-04-22T03:57:47;99824.06;;;12.56;71.62
63739;BME280;68816;45.558;10.070;2023-04-22T04:00:12;99819.84;;;12.53;71.41
63739;BME280;68816;45.558;10.070;2023-04-22T04:02:38;99827.59;;;12.51;72.15
63739;BME280;68816;45.558;10.070;2023-04-22T04:05:04;99821.78;;;12.53;72.37
63739;BME280;68816;45.558;10.070;2023-04-22T04:07:30;99827.59;;;12.51;72.41
63739;BME280;68816;45.558;10.070;2023-04-22T04:09:55;99823.00;;;12.40;72.27
63739;BME280;68816;45.558;10.070;2023-04-22T04:12:21;99832.97;;;12.41;72.44
63739;BME280;68816;45.558;10.070;2023-04-22T04:14:46;99817.44;;;12.40;72.51
63739;BME280;68816;45.558;10.070;2023-04-22T04:17:12;99803.31;;;12.42;71.92
63739;BME280;68816;45.558;10.070;2023-04-22T04:19:38;99817.00;;;12.48;71.53
63739;BME280;68816;45.558;10.070;2023-04-22T04:22:04;99822.72;;;12.42;72.48
63739;BME280;68816;45.558;10.070;2023-04-22T04:24:29;99817.78;;;12.44;72.01
63739;BME280;68816;45.558;10.070;2023-04-22T04:26:55;99811.38;;;12.43;72.30
63739;BME280;68816;45.558;10.070;2023-04-22T04:29:22;99811.00;;;12.34;73.12
63739;BME280;68816;45.558;10.070;2023-04-22T04:31:48;99806.25;;;12.35;72.34
63739;BME280;68816;45.558;10.070;2023-04-22T04:34:13;99813.56;;;12.41;72.34
63739;BME280;68816;45.558;10.070;2023-04-22T04:36:39;99817.34;;;12.35;72.07
63739;BME280;68816;45.558;10.070;2023-04-22T04:39:05;99816.00;;;12.38;71.89
63739;BME280;68816;45.558;10.070;2023-04-22T04:41:33;99811.09;;;12.23;71.94
63739;BME280;68816;45.558;10.070;2023-04-22T04:43:59;99810.47;;;12.21;71.23
63739;BME280;68816;45.558;10.070;2023-04-22T04:46:25;99819.72;;;12.26;72.13
63739;BME280;68816;45.558;10.070;2023-04-22T04:48:54;99812.56;;;12.14;72.32
63739;BME280;68816;45.558;10.070;2023-04-22T04:51:21;99829.44;;;12.29;71.43
63739;BME280;68816;45.558;10.070;2023-04-22T05:20:43;99850.44;;;12.75;70.05
63739;BME280;68816;45.558;10.070;2023-04-22T05:23:08;99856.09;;;12.63;70.67
63739;BME280;68816;45.558;10.070;2023-04-22T05:25:34;99855.63;;;12.71;70.75
63739;BME280;68816;45.558;10.070;2023-04-22T05:27:59;99842.66;;;12.77;70.47
63739;BME280;68816;45.558;10.070;2023-04-22T05:30:25;99842.91;;;12.75;70.89
63739;BME280;68816;45.558;10.070;2023-04-22T05:32:52;99844.09;;;12.80;70.65
63739;BME280;68816;45.558;10.070;2023-04-22T05:35:19;99858.81;;;12.80;70.08
63739;BME280;68816;45.558;10.070;2023-04-22T05:37:53;99857.97;;;12.80;70.41
63739;BME280;68816;45.558;10.070;2023-04-22T05:40:18;99863.84;;;12.83;70.85
63739;BME280;68816;45.558;10.070;2023-04-22T05:42:43;99859.22;;;12.89;69.51
63739;BME280;68816;45.558;10.070;2023-04-22T05:45:09;99864.94;;;12.82;70.24
63739;BME280;68816;45.558;10.070;2023-04-22T05:47:35;99869.81;;;12.92;69.35
63739;BME280;68816;45.558;10.070;2023-04-22T05:50:00;99869.88;;;12.97;69.36
63739;BME280;68816;45.558;10.070;2023-04-22T05:52:26;99861.81;;;12.95;68.50
63739;BME280;68816;45.558;10.070;2023-04-22T05:54:54;99869.88;;;13.13;68.58
63739;BME280;68816;45.558;10.070;2023-04-22T05:57:20;99869.03;;;13.13;69.63
63739;BME280;68816;45.558;10.070;2023-04-22T05:59:46;99868.97;;;13.30;69.12
63739;BME280;68816;45.558;10.070;2023-04-22T06:02:13;99874.63;;;13.40;67.85
63739;BME280;68816;45.558;10.070;2023-04-22T06:04:40;99876.97;;;13.48;66.92
63739;BME280;68816;45.558;10.070;2023-04-22T06:07:06;99868.94;;;13.51;66.13
63739;BME280;68816;45.558;10.070;2023-04-22T06:09:52;99881.75;;;13.74;66.57
63739;BME280;68816;45.558;10.070;2023-04-22T06:12:35;99858.91;;;13.72;65.75
63739;BME280;68816;45.558;10.070;2023-04-22T06:15:08;99854.00;;;13.79;65.70
63739;BME280;68816;45.558;10.070;2023-04-22T06:17:33;99844.91;;;13.89;64.67
63739;BME280;68816;45.558;10.070;2023-04-22T06:19:59;99846.19;;;14.03;64.65
63739;BME280;68816;45.558;10.070;2023-04-22T06:22:24;99872.28;;;14.34;65.19
63739;BME280;68816;45.558;10.070;2023-04-22T06:24:50;99829.00;;;14.11;64.67
63739;BME280;68816;45.558;10.070;2023-04-22T06:27:18;99873.53;;;14.43;64.48
63739;BME280;68816;45.558;10.070;2023-04-22T06:29:44;99868.88;;;14.54;62.92
63739;BME280;68816;45.558;10.070;2023-04-22T06:32:09;99876.81;;;14.72;62.69
63739;BME280;68816;45.558;10.070;2023-04-22T06:34:35;99880.72;;;14.76;63.72
63739;BME280;68816;45.558;10.070;2023-04-22T06:37:03;99875.81;;;14.88;60.89
63739;BME280;68816;45.558;10.070;2023-04-22T06:39:28;99868.66;;;15.02;60.91
63739;BME280;68816;45.558;10.070;2023-04-22T06:41:54;99873.41;;;15.07;58.51
63739;BME280;68816;45.558;10.070;2023-04-22T06:44:19;99878.41;;;15.05;59.44
63739;BME280;68816;45.558;10.070;2023-04-22T06:46:45;99880.75;;;15.28;60.12
63739;BME280;68816;45.558;10.070;2023-04-22T06:49:10;99877.75;;;15.40;59.91
63739;BME280;68816;45.558;10.070;2023-04-22T06:51:36;99882.25;;;15.51;59.44
63739;BME280;68816;45.558;10.070;2023-04-22T06:54:03;99880.09;;;15.58;59.21
63739;BME280;68816;45.558;10.070;2023-04-22T06:56:28;99879.03;;;15.74;58.30
63739;BME280;68816;45.558;10.070;2023-04-22T06:58:54;99877.41;;;15.83;57.88
63739;BME280;68816;45.558;10.070;2023-04-22T07:01:19;99874.31;;;15.85;59.62
63739;BME280;68816;45.558;10.070;2023-04-22T07:03:45;99861.25;;;15.95;56.90
63739;BME280;68816;45.558;10.070;2023-04-22T07:06:11;99871.84;;;16.09;58.49
63739;BME280;68816;45.558;10.070;2023-04-22T07:08:36;99866.84;;;16.21;58.67
63739;BME280;68816;45.558;10.070;2023-04-22T07:11:02;99863.53;;;16.24;59.05
63739;BME280;68816;45.558;10.070;2023-04-22T07:13:30;99874.94;;;16.27;59.78
63739;BME280;68816;45.558;10.070;2023-04-22T07:15:59;99857.38;;;16.32;57.12
63739;BME280;68816;45.558;10.070;2023-04-22T07:18:25;99859.63;;;16.40;56.53
63739;BME280;68816;45.558;10.070;2023-04-22T07:20:51;99864.91;;;16.47;57.83
63739;BME280;68816;45.558;10.070;2023-04-22T07:23:18;99861.84;;;16.58;56.58
63739;BME280;68816;45.558;10.070;2023-04-22T07:25:44;99852.38;;;16.59;55.82
63739;BME280;68816;45.558;10.070;2023-04-22T07:28:10;99870.22;;;16.73;54.81
63739;BME280;68816;45.558;10.070;2023-04-22T07:30:36;99865.22;;;16.65;53.89
63739;BME280;68816;45.558;10.070;2023-04-22T07:33:01;99866.59;;;16.58;53.61
63739;BME280;68816;45.558;10.070;2023-04-22T07:35:28;99866.28;;;16.54;53.12
63739;BME280;68816;45.558;10.070;2023-04-22T07:37:55;99865.75;;;16.52;54.46
63739;BME280;68816;45.558;10.070;2023-04-22T07:40:20;99865.78;;;16.62;53.85
63739;BME280;68816;45.558;10.070;2023-04-22T07:42:49;99862.69;;;16.69;53.93
63739;BME280;68816;45.558;10.070;2023-04-22T07:45:14;99872.44;;;16.87;54.96
63739;BME280;68816;45.558;10.070;2023-04-22T07:47:40;99863.25;;;16.86;54.27
63739;BME280;68816;45.558;10.070;2023-04-22T07:50:06;99866.28;;;17.05;55.64
63739;BME280;68816;45.558;10.070;2023-04-22T07:52:32;99878.50;;;17.24;55.03
63739;BME280;68816;45.558;10.070;2023-04-22T07:54:57;99877.97;;;17.22;54.07
63739;BME280;68816;45.558;10.070;2023-04-22T07:57:22;99870.13;;;17.29;54.40
63739;BME280;68816;45.558;10.070;2023-04-22T07:59:48;99871.72;;;17.45;53.90
63739;BME280;68816;45.558;10.070;2023-04-22T08:02:14;99875.75;;;17.14;53.55
63739;BME280;68816;45.558;10.070;2023-04-22T08:04:40;99872.41;;;17.17;53.99
63739;BME280;68816;45.558;10.070;2023-04-22T08:07:05;99875.38;;;17.36;53.82
63739;BME280;68816;45.558;10.070;2023-04-22T08:09:31;99889.03;;;17.47;53.61
63739;BME280;68816;45.558;10.070;2023-04-22T08:11:56;99871.72;;;17.45;53.00
63739;BME280;68816;45.558;10.070;2023-04-22T08:14:22;99880.69;;;17.37;53.54
63739;BME280;68816;45.558;10.070;2023-04-22T08:16:50;99874.03;;;17.28;53.76
63739;BME280;68816;45.558;10.070;2023-04-22T08:19:17;99881.75;;;17.61;52.28
63739;BME280;68816;45.558;10.070;2023-04-22T08:21:42;99881.19;;;17.64;51.96
63739;BME280;68816;45.558;10.070;2023-04-22T08:24:09;99889.53;;;17.75;52.91
63739;BME280;68816;45.558;10.070;2023-04-22T08:26:35;99886.72;;;17.75;50.57
63739;BME280;68816;45.558;10.070;2023-04-22T08:29:01;99881.13;;;17.75;50.66
63739;BME280;68816;45.558;10.070;2023-04-22T08:31:26;99885.56;;;17.86;50.59
63739;BME280;68816;45.558;10.070;2023-04-22T08:33:52;99876.59;;;17.84;50.03
63739;BME280;68816;45.558;10.070;2023-04-22T08:36:17;99872.59;;;18.00;50.54
63739;BME280;68816;45.558;10.070;2023-04-22T08:38:43;99868.84;;;17.71;48.42
63739;BME280;68816;45.558;10.070;2023-04-22T08:41:11;99874.25;;;18.01;48.08
63739;BME280;68816;45.558;10.070;2023-04-22T08:43:37;99867.91;;;17.90;46.79
63739;BME280;68816;45.558;10.070;2023-04-22T08:46:02;99875.41;;;17.95;47.12
63739;BME280;68816;45.558;10.070;2023-04-22T08:48:28;99876.13;;;18.16;47.59
63739;BME280;68816;45.558;10.070;2023-04-22T08:50:53;99869.63;;;18.25;46.42
63739;BME280;68816;45.558;10.070;2023-04-22T08:53:20;99866.50;;;18.32;47.03
63739;BME280;68816;45.558;10.070;2023-04-22T08:55:47;99871.91;;;18.18;46.42
63739;BME280;68816;45.558;10.070;2023-04-22T08:58:13;99874.63;;;18.33;47.30
63739;BME280;68816;45.558;10.070;2023-04-22T09:00:42;99871.53;;;18.30;47.31
63739;BME280;68816;45.558;10.070;2023-04-22T09:03:08;99871.13;;;18.52;48.02
63739;BME280;68816;45.558;10.070;2023-04-22T09:05:36;99874.06;;;18.31;46.67
63739;BME280;68816;45.558;10.070;2023-04-22T09:08:03;99869.22;;;18.42;46.63
63739;BME280;68816;45.558;10.070;2023-04-22T09:10:30;99865.53;;;18.46;47.04
63739;BME280;68816;45.558;10.070;2023-04-22T09:12:56;99862.66;;;18.62;46.66
63739;BME280;68816;45.558;10.070;2023-04-22T09:15:23;99864.06;;;18.59;47.12
63739;BME280;68816;45.558;10.070;2023-04-22T09:17:51;99862.41;;;18.53;47.25
63739;BME280;68816;45.558;10.070;2023-04-22T09:20:16;99865.78;;;18.55;47.57
63739;BME280;68816;45.558;10.070;2023-04-22T09:22:48;99861.47;;;18.68;48.79
63739;BME280;68816;45.558;10.070;2023-04-22T09:25:25;99856.31;;;18.80;49.47
63739;BME280;68816;45.558;10.070;2023-04-22T09:27:55;99861.03;;;18.84;49.92
63739;BME280;68816;45.558;10.070;2023-04-22T09:30:25;99863.44;;;18.96;50.11
63739;BME280;68816;45.558;10.070;2023-04-22T09:32:52;99863.03;;;18.79;51.12
63739;BME280;68816;45.558;10.070;2023-04-22T09:35:32;99856.94;;;18.72;51.69
63739;BME280;68816;45.558;10.070;2023-04-22T09:38:00;99847.63;;;19.05;51.18
63739;BME280;68816;45.558;10.070;2023-04-22T09:40:26;99860.78;;;18.81;49.89
63739;BME280;68816;45.558;10.070;2023-04-22T09:42:53;99841.03;;;19.20;51.30
63739;BME280;68816;45.558;10.070;2023-04-22T09:45:33;99850.22;;;19.25;51.03
63739;BME280;68816;45.558;10.070;2023-04-22T09:48:12;99847.53;;;19.15;50.92
63739;BME280;68816;45.558;10.070;2023-04-22T09:50:43;99848.59;;;19.43;51.27
63739;BME280;68816;45.558;10.070;2023-04-22T09:53:10;99839.53;;;19.51;51.32
63739;BME280;68816;45.558;10.070;2023-04-22T09:55:39;99847.16;;;19.51;50.56
63739;BME280;68816;45.558;10.070;2023-04-22T09:58:11;99842.97;;;19.48;48.84
63739;BME280;68816;45.558;10.070;2023-04-22T10:00:41;99832.44;;;19.59;49.11
63739;BME280;68816;45.558;10.070;2023-04-22T10:03:07;99830.56;;;19.73;48.92
63739;BME280;68816;45.558;10.070;2023-04-22T10:05:32;99837.63;;;19.47;50.88
63739;BME280;68816;45.558;10.070;2023-04-22T10:08:06;99833.81;;;19.80;49.79
63739;BME280;68816;45.558;10.070;2023-04-22T10:10:32;99829.03;;;19.81;47.85
63739;BME280;68816;45.558;10.070;2023-04-22T10:13:00;99829.81;;;19.86;48.49
63739;BME280;68816;45.558;10.070;2023-04-22T10:15:36;99823.22;;;20.15;48.35
63739;BME280;68816;45.558;10.070;2023-04-22T10:18:05;99823.59;;;20.08;48.26
63739;BME280;68816;45.558;10.070;2023-04-22T10:20:37;99824.44;;;20.08;48.78
63739;BME280;68816;45.558;10.070;2023-04-22T10:23:04;99817.22;;;20.02;47.29
63739;BME280;68816;45.558;10.070;2023-04-22T10:25:30;99815.97;;;20.27;47.08
63739;BME280;68816;45.558;10.070;2023-04-22T10:28:02;99818.00;;;20.08;46.49
63739;BME280;68816;45.558;10.070;2023-04-22T10:30:31;99813.34;;;19.98;47.97
63739;BME280;68816;45.558;10.070;2023-04-22T10:41:14;99814.63;;;19.68;50.10
63739;BME280;68816;45.558;10.070;2023-04-22T10:43:47;99808.09;;;19.92;48.06
63739;BME280;68816;45.558;10.070;2023-04-22T10:49:21;99802.97;;;20.50;46.54
63739;BME280;68816;45.558;10.070;2023-04-22T10:51:47;99801.19;;;20.73;45.21
63739;BME280;68816;45.558;10.070;2023-04-22T10:57:03;99800.69;;;20.84;44.12
63739;BME280;68816;45.558;10.070;2023-04-22T11:02:08;99790.25;;;20.39;45.89
63739;BME280;68816;45.558;10.070;2023-04-22T11:04:34;99786.34;;;20.54;46.61
63739;BME280;68816;45.558;10.070;2023-04-22T11:15:20;99790.59;;;20.00;47.49
63739;BME280;68816;45.558;10.070;2023-04-22T11:17:53;99783.47;;;19.89;46.12
63739;BME280;68816;45.558;10.070;2023-04-22T11:20:19;99782.03;;;19.91;47.07
63739;BME280;68816;45.558;10.070;2023-04-22T11:22:50;99776.19;;;19.69;48.81
63739;BME280;68816;45.558;10.070;2023-04-22T11:25:16;99779.91;;;20.02;48.75
63739;BME280;68816;45.558;10.070;2023-04-22T11:27:42;99783.00;;;20.19;46.96
63739;BME280;68816;45.558;10.070;2023-04-22T11:30:17;99772.69;;;20.15;48.13
63739;BME280;68816;45.558;10.070;2023-04-22T11:32:44;99785.78;;;20.19;48.10
63739;BME280;68816;45.558;10.070;2023-04-22T11:35:24;99783.19;;;20.41;48.54
63739;BME280;68816;45.558;10.070;2023-04-22T11:37:56;99779.47;;;20.46;46.37
63739;BME280;68816;45.558;10.070;2023-04-22T11:40:47;99782.06;;;20.56;46.86
63739;BME280;68816;45.558;10.070;2023-04-22T11:43:13;99767.78;;;20.39;45.79
63739;BME280;68816;45.558;10.070;2023-04-22T11:45:39;99776.94;;;20.44;45.99
63739;BME280;68816;45.558;10.070;2023-04-22T11:48:07;99774.56;;;20.84;46.00
63739;BME280;68816;45.558;10.070;2023-04-22T11:50:35;99762.25;;;20.80;46.33
63739;BME280;68816;45.558;10.070;2023-04-22T11:53:03;99768.50;;;21.04;43.56
63739;BME280;68816;45.558;10.070;2023-04-22T11:55:34;99760.31;;;21.35;42.79
63739;BME280;68816;45.558;10.070;2023-04-22T11:58:07;99765.19;;;21.43;43.53
63739;BME280;68816;45.558;10.070;2023-04-22T12:00:39;99761.25;;;21.30;45.34
63739;BME280;68816;45.558;10.070;2023-04-22T12:03:08;99751.50;;;21.50;44.44
63739;BME280;68816;45.558;10.070;2023-04-22T12:08:21;99741.22;;;21.46;42.42
63739;BME280;68816;45.558;10.070;2023-04-22T12:10:49;99742.75;;;21.65;41.69
63739;BME280;68816;45.558;10.070;2023-04-22T12:13:22;99745.50;;;21.79;41.99
63739;BME280;68816;45.558;10.070;2023-04-22T12:15:52;99735.88;;;21.94;41.95
63739;BME280;68816;45.558;10.070;2023-04-22T12:18:33;99744.03;;;21.95;42.39
63739;BME280;68816;45.558;10.070;2023-04-22T12:21:12;99738.81;;;21.89;43.10
63739;BME280;68816;45.558;10.070;2023-04-22T12:23:45;99743.72;;;21.83;42.01
63739;BME280;68816;45.558;10.070;2023-04-22T12:26:12;99736.59;;;21.99;42.09
63739;BME280;68816;45.558;10.070;2023-04-22T12:28:39;99736.00;;;22.33;41.54
63739;BME280;68816;45.558;10.070;2023-04-22T12:31:06;99736.16;;;22.28;40.30
63739;BME280;68816;45.558;10.070;2023-04-22T12:33:32;99740.69;;;22.16;41.56
63739;BME280;68816;45.558;10.070;2023-04-22T12:35:58;99735.25;;;21.97;40.19
63739;BME280;68816;45.558;10.070;2023-04-22T12:38:23;99730.91;;;22.35;41.09
63739;BME280;68816;45.558;10.070;2023-04-22T12:40:49;99725.16;;;22.18;40.73
63739;BME280;68816;45.558;10.070;2023-04-22T12:43:15;99732.75;;;22.40;38.67
63739;BME280;68816;45.558;10.070;2023-04-22T12:45:41;99718.56;;;22.76;39.39
63739;BME280;68816;45.558;10.070;2023-04-22T12:48:07;99727.13;;;22.40;37.62
63739;BME280;68816;45.558;10.070;2023-04-22T12:50:32;99728.13;;;22.44;36.75
63739;BME280;68816;45.558;10.070;2023-04-22T12:52:58;99717.88;;;22.79;36.46
63739;BME280;68816;45.558;10.070;2023-04-22T12:55:23;99719.25;;;22.90;36.81
63739;BME280;68816;45.558;10.070;2023-04-22T12:57:49;99710.56;;;22.78;37.59
63739;BME280;68816;45.558;10.070;2023-04-22T13:00:16;99713.28;;;22.83;38.38
63739;BME280;68816;45.558;10.070;2023-04-22T13:02:43;99709.09;;;22.80;38.31
63739;BME280;68816;45.558;10.070;2023-04-22T13:05:09;99712.44;;;22.51;38.31
63739;BME280;68816;45.558;10.070;2023-04-22T13:07:36;99700.03;;;22.61;37.34
63739;BME280;68816;45.558;10.070;2023-04-22T13:10:02;99691.78;;;23.04;37.22
63739;BME280;68816;45.558;10.070;2023-04-22T13:12:29;99700.66;;;22.89;38.17
63739;BME280;68816;45.558;10.070;2023-04-22T13:14:54;99683.03;;;23.23;36.71
63739;BME280;68816;45.558;10.070;2023-04-22T13:17:20;99673.25;;;23.38;36.22
63739;BME280;68816;45.558;10.070;2023-04-22T13:19:46;99682.59;;;23.47;36.77
63739;BME280;68816;45.558;10.070;2023-04-22T13:22:12;99675.75;;;23.39;36.81
63739;BME280;68816;45.558;10.070;2023-04-22T13:24:38;99673.63;;;23.53;35.65
63739;BME280;68816;45.558;10.070;2023-04-22T13:27:04;99673.13;;;23.77;35.13
63739;BME280;68816;45.558;10.070;2023-04-22T13:29:31;99665.28;;;23.22;34.14
63739;BME280;68816;45.558;10.070;2023-04-22T13:31:57;99666.16;;;23.49;33.09
63739;BME280;68816;45.558;10.070;2023-04-22T13:34:22;99660.16;;;23.59;33.74
63739;BME280;68816;45.558;10.070;2023-04-22T13:36:48;99667.28;;;23.39;35.24
63739;BME280;68816;45.558;10.070;2023-04-22T13:39:13;99647.69;;;23.43;34.49
63739;BME280;68816;45.558;10.070;2023-04-22T13:41:39;99655.72;;;23.58;33.70
63739;BME280;68816;45.558;10.070;2023-04-22T13:44:05;99657.69;;;23.66;32.97